Time;durP1;ratioP1;P1;durP2;ratioP2;P2;SDS_P1;SDS_P2;PMS_P1;PMS_P2;Temp;Humidity;BMP_temperature;BMP_pressure;BME280_temperature;BME280_humidity;BME280_pressure;Samples;Min_cycle;Max_cycle;Signal;HPM_P1;HPM_P2
2022/03/21 00:00:47;;;;;;;18.97;11.70;;;12.00;36.80;;;;;;5112841;27;20429;-83
2022/03/21 00:03:18;;;;;;;18.20;11.00;;;11.90;37.10;;;;;;5131168;27;21048;-83
2022/03/21 00:05:46;;;;;;;17.83;10.80;;;11.90;36.40;;;;;;5113604;27;21192;-80
2022/03/21 00:08:14;;;;;;;20.17;12.33;;;11.90;36.20;;;;;;5114893;27;21028;-83
2022/03/21 00:10:41;;;;;;;19.93;11.10;;;11.90;37.20;;;;;;5113756;27;20465;-82
2022/03/21 00:13:09;;;;;;;19.90;11.07;;;11.90;36.80;;;;;;5097994;27;20528;-83
2022/03/21 00:15:36;;;;;;;18.37;11.47;;;11.80;37.00;;;;;;5113747;27;20889;-80
2022/03/21 00:18:04;;;;;;;21.07;11.70;;;11.80;37.40;;;;;;5113349;27;20454;-84
2022/03/21 00:20:34;;;;;;;24.00;12.43;;;11.70;37.00;;;;;;5115654;27;20438;-83
2022/03/21 00:23:01;;;;;;;23.37;12.20;;;11.70;37.20;;;;;;5131198;27;20481;-83
2022/03/21 00:25:29;;;;;;;17.37;12.50;;;11.70;37.00;;;;;;5132754;27;20874;-83
2022/03/21 00:27:56;;;;;;;21.67;11.70;;;11.70;37.60;;;;;;5112595;27;20453;-84
2022/03/21 00:30:23;;;;;;;16.47;10.60;;;11.60;37.80;;;;;;5087300;27;20465;-83
2022/03/21 00:32:50;;;;;;;17.77;11.97;;;11.70;38.00;;;;;;5111718;27;20452;-83
2022/03/21 00:35:17;;;;;;;21.23;11.70;;;11.60;38.00;;;;;;5113646;27;20494;-83
2022/03/21 00:37:46;;;;;;;20.83;11.90;;;11.60;37.50;;;;;;5112981;27;20525;-83
2022/03/21 00:40:16;;;;;;;19.90;12.43;;;11.40;38.30;;;;;;5132514;27;20511;-82
2022/03/21 00:42:44;;;;;;;19.33;12.30;;;11.40;38.20;;;;;;5117441;27;20486;-82
2022/03/21 00:45:13;;;;;;;24.83;12.60;;;11.40;38.30;;;;;;5105351;27;20496;-82
2022/03/21 00:47:40;;;;;;;21.50;11.33;;;11.30;37.70;;;;;;5096239;27;20445;-82
2022/03/21 00:50:09;;;;;;;14.77;9.90;;;11.40;37.50;;;;;;5085693;27;20468;-84
2022/03/21 00:52:40;;;;;;;18.63;11.67;;;11.30;37.10;;;;;;5128690;27;21245;-84
2022/03/21 00:55:10;;;;;;;20.83;11.17;;;11.30;37.10;;;;;;5112658;27;20952;-83
2022/03/21 00:57:40;;;;;;;15.50;10.07;;;11.20;37.60;;;;;;5097276;27;20469;-83
2022/03/21 01:00:10;;;;;;;19.00;11.47;;;11.20;37.50;;;;;;5114369;27;20425;-83
2022/03/21 01:02:37;;;;;;;13.97;10.80;;;11.00;36.40;;;;;;5114612;27;20569;-82
2022/03/21 01:05:05;;;;;;;19.10;10.30;;;10.90;36.20;;;;;;5113709;27;20441;-83
2022/03/21 01:07:32;;;;;;;15.63;10.33;;;10.90;36.60;;;;;;5111432;27;20437;-83
2022/03/21 01:09:59;;;;;;;16.13;10.13;;;11.00;36.80;;;;;;5109486;27;20564;-83
2022/03/21 01:12:28;;;;;;;16.20;10.00;;;11.00;36.60;;;;;;5121027;27;20449;-82
2022/03/21 01:14:55;;;;;;;20.97;10.57;;;11.00;36.90;;;;;;5129391;27;20445;-82
2022/03/21 01:17:22;;;;;;;14.10;9.97;;;11.00;36.60;;;;;;5115947;27;20491;-83
2022/03/21 01:19:49;;;;;;;18.30;11.43;;;11.00;36.50;;;;;;5129353;27;20483;-82
2022/03/21 01:22:16;;;;;;;19.23;11.07;;;11.00;36.50;;;;;;5112656;27;20456;-84
2022/03/21 01:24:43;;;;;;;16.73;9.57;;;11.00;36.40;;;;;;5111896;27;20460;-82
2022/03/21 01:27:11;;;;;;;21.70;10.47;;;11.00;36.80;;;;;;5112419;27;20553;-82
2022/03/21 01:29:39;;;;;;;17.90;11.10;;;10.90;36.80;;;;;;5113391;27;20465;-84
2022/03/21 01:32:07;;;;;;;19.40;11.03;;;10.90;36.90;;;;;;5111926;27;20497;-83
2022/03/21 01:34:34;;;;;;;22.03;11.73;;;10.90;37.10;;;;;;5112539;27;20546;-83
2022/03/21 01:37:01;;;;;;;21.73;10.63;;;10.80;37.30;;;;;;5110886;27;20544;-83
2022/03/21 01:39:28;;;;;;;12.97;9.53;;;10.80;37.50;;;;;;5128326;27;20823;-83
2022/03/21 01:41:55;;;;;;;21.37;11.50;;;10.70;37.70;;;;;;5132960;27;20437;-83
2022/03/21 01:44:22;;;;;;;16.63;10.03;;;10.70;37.20;;;;;;5129440;27;20786;-83
2022/03/21 01:46:50;;;;;;;21.63;11.20;;;10.60;36.70;;;;;;5113892;27;21101;-83
2022/03/21 01:49:18;;;;;;;18.60;11.10;;;10.50;37.70;;;;;;5111450;27;20436;-83
2022/03/21 01:51:45;;;;;;;17.83;10.67;;;10.40;38.80;;;;;;5113008;27;20497;-80
2022/03/21 01:56:58;;;;;;;16.53;10.60;;;10.30;38.00;;;;;;5113569;27;21191;-83
2022/03/21 01:59:26;;;;;;;16.67;10.10;;;10.30;38.20;;;;;;5130119;27;20970;-83
2022/03/21 02:01:55;;;;;;;18.10;10.60;;;10.30;38.20;;;;;;5097508;27;20540;-83
2022/03/21 02:04:22;;;;;;;17.10;10.70;;;10.40;38.30;;;;;;5113798;27;20449;-83
2022/03/21 02:06:50;;;;;;;19.87;11.33;;;10.40;38.20;;;;;;5093834;27;20473;-82
2022/03/21 02:09:17;;;;;;;16.40;11.47;;;10.40;38.10;;;;;;5111200;27;20460;-83
2022/03/21 02:11:44;;;;;;;20.30;11.43;;;10.20;38.20;;;;;;5110930;27;20480;-83
2022/03/21 02:14:12;;;;;;;22.73;10.80;;;10.20;38.70;;;;;;5129170;27;20445;-82
2022/03/21 02:16:40;;;;;;;19.63;11.97;;;10.20;39.10;;;;;;5109807;27;20480;-82
2022/03/21 02:19:22;;;;;;;17.40;10.83;;;10.20;39.10;;;;;;5131112;27;20539;-82
2022/03/21 02:22:01;;;;;;;19.93;11.27;;;10.20;38.90;;;;;;5111804;27;21011;-82
2022/03/21 02:24:37;;;;;;;21.57;11.97;;;10.20;39.20;;;;;;5111080;27;20966;-82
2022/03/21 02:27:08;;;;;;;18.20;11.27;;;10.20;39.40;;;;;;5111801;27;20547;-83
2022/03/21 02:29:37;;;;;;;15.70;11.10;;;10.20;39.70;;;;;;5132258;27;20441;-82
2022/03/21 02:32:07;;;;;;;25.10;12.40;;;10.20;39.90;;;;;;5130384;27;20814;-83
2022/03/21 02:34:37;;;;;;;20.37;12.80;;;10.10;39.70;;;;;;5132480;27;20449;-83
2022/03/21 02:37:07;;;;;;;21.83;13.20;;;10.10;39.90;;;;;;5110733;27;21993;-83
2022/03/21 02:39:35;;;;;;;23.47;12.23;;;10.10;40.10;;;;;;5131110;27;20429;-83
2022/03/21 02:42:03;;;;;;;21.63;12.67;;;10.10;40.60;;;;;;5097593;27;20467;-84
2022/03/21 02:44:35;;;;;;;16.60;11.20;;;10.00;40.70;;;;;;5129293;27;20449;-82
2022/03/21 02:47:02;;;;;;;20.27;12.90;;;9.90;41.50;;;;;;5131984;27;20481;-83
2022/03/21 02:49:29;;;;;;;20.93;12.97;;;9.80;42.20;;;;;;5101835;27;20463;-83
2022/03/21 02:51:56;;;;;;;23.90;12.77;;;9.80;42.10;;;;;;5110985;27;20469;-82
2022/03/21 02:54:23;;;;;;;18.73;12.47;;;9.70;42.40;;;;;;5111591;27;20452;-82
2022/03/21 02:56:51;;;;;;;24.33;12.90;;;9.70;42.20;;;;;;5110430;27;20464;-82
2022/03/21 02:59:18;;;;;;;20.40;12.10;;;9.80;42.20;;;;;;5132464;27;20445;-83
2022/03/21 03:01:46;;;;;;;20.93;12.33;;;9.80;42.20;;;;;;5128550;27;20926;-81
2022/03/21 03:04:13;;;;;;;24.77;13.10;;;9.70;42.30;;;;;;5104002;27;20454;-84
2022/03/21 03:06:40;;;;;;;19.13;11.30;;;9.70;42.80;;;;;;5110923;27;20477;-83
2022/03/21 03:09:08;;;;;;;21.63;12.40;;;9.60;43.20;;;;;;5113519;27;20482;-83
2022/03/21 03:11:37;;;;;;;26.00;12.20;;;9.60;42.80;;;;;;5113640;27;20468;-83
2022/03/21 03:14:04;;;;;;;20.30;12.47;;;9.60;42.90;;;;;;5137188;27;20442;-82
2022/03/21 03:16:31;;;;;;;20.10;11.90;;;9.50;43.50;;;;;;5134514;27;21120;-83
2022/03/21 03:18:59;;;;;;;19.63;12.67;;;9.50;43.60;;;;;;5121360;27;20461;-83
2022/03/21 03:21:30;;;;;;;23.37;12.40;;;9.40;43.30;;;;;;5100998;27;20456;-83
2022/03/21 03:23:59;;;;;;;23.57;13.30;;;9.40;43.50;;;;;;5114919;27;20941;-83
2022/03/21 03:26:26;;;;;;;21.73;12.10;;;9.30;43.50;;;;;;5106403;27;20595;-83
2022/03/21 03:28:53;;;;;;;20.10;11.43;;;9.20;43.10;;;;;;5113843;27;20834;-83
2022/03/21 03:31:20;;;;;;;24.80;13.73;;;9.20;43.60;;;;;;5118253;27;20473;-83
2022/03/21 03:33:48;;;;;;;19.70;11.60;;;9.20;44.40;;;;;;5098186;27;20456;-83
2022/03/21 03:36:17;;;;;;;18.03;12.20;;;9.20;43.80;;;;;;5124761;27;20539;-84
2022/03/21 03:38:45;;;;;;;18.60;11.73;;;9.10;43.60;;;;;;5134511;27;20453;-84
2022/03/21 03:41:12;;;;;;;20.20;13.40;;;9.20;43.50;;;;;;5120487;27;20442;-83
2022/03/21 03:43:40;;;;;;;21.27;11.40;;;9.10;43.50;;;;;;5116180;27;20496;-84
2022/03/21 03:46:07;;;;;;;17.63;11.43;;;9.10;43.80;;;;;;5137057;27;20469;-83
2022/03/21 03:48:34;;;;;;;22.67;11.77;;;9.10;43.50;;;;;;5102575;27;20863;-83
2022/03/21 03:51:01;;;;;;;21.57;11.77;;;9.10;43.30;;;;;;5113102;27;20480;-84
2022/03/21 03:53:30;;;;;;;19.43;11.80;;;9.10;43.20;;;;;;5118789;27;20445;-83
2022/03/21 03:55:57;;;;;;;21.10;11.20;;;9.00;43.30;;;;;;5113826;27;20483;-83
2022/03/21 03:58:23;;;;;;;20.83;11.73;;;9.00;43.40;;;;;;5117177;27;20453;-83
2022/03/21 04:00:51;;;;;;;23.43;12.10;;;9.00;43.50;;;;;;5114756;27;20782;-83
2022/03/21 04:06:04;;;;;;;19.93;11.07;;;8.80;44.20;;;;;;5114564;27;20442;-83
2022/03/21 04:08:32;;;;;;;22.33;11.43;;;8.80;44.00;;;;;;5115274;27;20453;-83
2022/03/21 04:10:59;;;;;;;20.13;11.83;;;8.90;44.00;;;;;;5114737;27;20979;-83
2022/03/21 04:13:26;;;;;;;26.67;12.73;;;8.90;43.90;;;;;;5116956;27;20452;-82
2022/03/21 04:15:53;;;;;;;21.43;12.10;;;8.90;43.50;;;;;;5137255;27;20465;-83
2022/03/21 04:18:20;;;;;;;22.53;12.53;;;8.80;43.70;;;;;;5134993;27;20477;-82
2022/03/21 04:20:50;;;;;;;19.17;11.17;;;8.80;43.70;;;;;;5114156;27;20451;-82
2022/03/21 04:23:18;;;;;;;23.00;11.83;;;8.80;43.70;;;;;;5133972;27;20441;-80
2022/03/21 04:25:47;;;;;;;17.93;11.80;;;8.80;43.70;;;;;;5114589;27;20461;-80
2022/03/21 04:28:15;;;;;;;22.27;11.40;;;8.80;43.30;;;;;;5122347;27;20519;-82
2022/03/21 04:30:43;;;;;;;59.47;25.53;;;8.80;43.20;;;;;;5131764;27;20473;-82
2022/03/21 04:33:10;;;;;;;43.07;19.70;;;8.70;43.60;;;;;;5127129;27;21313;-82
2022/03/21 04:35:38;;;;;;;46.30;21.60;;;8.60;43.90;;;;;;5103884;27;20469;-83
2022/03/21 04:38:13;;;;;;;38.47;20.90;;;8.60;44.10;;;;;;5085553;27;21041;-83
2022/03/21 04:40:40;;;;;;;41.90;20.00;;;8.60;43.80;;;;;;5113417;27;20510;-82
2022/03/21 04:43:08;;;;;;;29.57;15.27;;;8.60;43.70;;;;;;5114515;27;20453;-83
2022/03/21 04:45:35;;;;;;;30.90;14.97;;;8.70;43.90;;;;;;5113340;27;20462;-83
2022/03/21 04:48:03;;;;;;;19.80;12.97;;;8.60;43.90;;;;;;5115849;27;20458;-82
2022/03/21 04:50:30;;;;;;;18.63;11.43;;;8.60;43.80;;;;;;5131832;27;21315;-82
2022/03/21 04:52:57;;;;;;;17.97;10.47;;;8.60;43.70;;;;;;5120793;27;20445;-82
2022/03/21 04:55:24;;;;;;;19.40;10.43;;;8.60;43.70;;;;;;5116119;27;20510;-82
2022/03/21 04:57:51;;;;;;;21.93;11.83;;;8.50;43.00;;;;;;5132478;27;20460;-83
2022/03/21 05:00:20;;;;;;;22.87;12.10;;;8.40;43.00;;;;;;5122060;27;20457;-82
2022/03/21 05:02:47;;;;;;;26.00;15.00;;;8.30;43.80;;;;;;5105446;27;20468;-83
2022/03/21 05:05:14;;;;;;;25.03;13.80;;;8.20;44.00;;;;;;5099659;27;20478;-82
2022/03/21 05:07:41;;;;;;;24.80;13.10;;;8.30;43.80;;;;;;5116663;27;20457;-82
2022/03/21 05:10:09;;;;;;;25.13;14.37;;;8.30;43.60;;;;;;5132423;27;20463;-82
2022/03/21 05:12:36;;;;;;;25.57;14.40;;;8.30;43.70;;;;;;5112979;27;20941;-80
2022/03/21 05:15:05;;;;;;;23.07;12.97;;;8.30;43.70;;;;;;5130696;27;20442;-83
2022/03/21 05:17:34;;;;;;;26.97;15.50;;;8.20;43.90;;;;;;5114840;27;20461;-84
2022/03/21 05:20:01;;;;;;;23.50;15.10;;;8.10;44.50;;;;;;5114344;27;20870;-82
2022/03/21 05:22:28;;;;;;;23.30;13.00;;;8.00;44.80;;;;;;5079591;27;20442;-84
2022/03/21 05:35:55;;;;;;;22.53;12.13;;;8.00;44.70;;;;;;5113900;27;20477;-82
2022/03/21 05:38:23;;;;;;;25.13;12.33;;;7.90;44.30;;;;;;5133535;27;20456;-83
2022/03/21 05:40:50;;;;;;;23.50;12.87;;;7.60;44.30;;;;;;5104371;27;20438;-82
2022/03/21 05:43:17;;;;;;;27.97;13.40;;;7.20;45.40;;;;;;5113134;27;20446;-83
2022/03/21 05:45:44;;;;;;;18.80;11.63;;;7.20;46.60;;;;;;5115435;27;21068;-82
2022/03/21 05:50:57;;;;;;;22.87;11.80;;;7.50;46.50;;;;;;5112914;27;20460;-82
2022/03/21 05:53:24;;;;;;;19.33;9.90;;;7.60;45.80;;;;;;5113775;27;20454;-82
2022/03/21 05:55:51;;;;;;;23.60;12.60;;;7.70;45.40;;;;;;5114021;27;20458;-82
2022/03/21 05:58:18;;;;;;;23.40;12.10;;;7.90;45.10;;;;;;5087921;27;20467;-83
2022/03/21 06:00:45;;;;;;;18.20;12.37;;;8.00;44.60;;;;;;5095985;27;20481;-82
2022/03/21 06:03:13;;;;;;;21.40;12.43;;;8.00;44.30;;;;;;5112623;27;20514;-82
2022/03/21 06:05:41;;;;;;;21.50;12.50;;;8.10;44.00;;;;;;5098640;27;21003;-83
2022/03/21 06:08:08;;;;;;;23.37;12.40;;;8.10;44.00;;;;;;5115380;27;20445;-83
2022/03/21 06:10:37;;;;;;;24.57;12.70;;;8.10;44.10;;;;;;5113539;27;20449;-83
2022/03/21 06:13:05;;;;;;;24.40;13.03;;;8.10;44.40;;;;;;5115330;27;20465;-84
2022/03/21 06:15:33;;;;;;;20.00;12.10;;;8.20;44.60;;;;;;5089379;27;20513;-83
2022/03/21 06:18:01;;;;;;;23.83;14.10;;;8.10;45.10;;;;;;5131380;27;20477;-82
2022/03/21 06:20:30;;;;;;;20.77;13.17;;;8.10;45.00;;;;;;5115481;27;21032;-82
2022/03/21 06:22:58;;;;;;;20.20;13.20;;;8.10;45.10;;;;;;5103123;27;22256;-82
2022/03/21 06:25:25;;;;;;;21.73;13.13;;;8.10;44.80;;;;;;5098456;27;20534;-83
2022/03/21 06:27:52;;;;;;;32.97;14.10;;;8.20;45.00;;;;;;5133006;27;21014;-83
2022/03/21 06:30:19;;;;;;;22.87;13.67;;;8.20;45.00;;;;;;5114539;27;20559;-82
2022/03/21 06:32:46;;;;;;;22.80;13.10;;;8.30;45.10;;;;;;5131159;27;20465;-81
2022/03/21 06:35:14;;;;;;;23.03;13.00;;;8.30;45.30;;;;;;5113428;27;20453;-83
2022/03/21 06:37:42;;;;;;;24.27;14.47;;;8.30;45.90;;;;;;5115817;27;20450;-83
2022/03/21 06:40:10;;;;;;;28.37;13.67;;;8.30;45.10;;;;;;5132315;27;21287;-82
2022/03/21 06:42:38;;;;;;;24.70;13.20;;;8.40;45.20;;;;;;5131808;27;20445;-80
2022/03/21 06:45:06;;;;;;;28.57;14.53;;;8.40;45.00;;;;;;5131666;27;20456;-83
2022/03/21 06:47:33;;;;;;;24.10;13.87;;;8.30;44.90;;;;;;5106487;27;20475;-83
2022/03/21 06:49:59;;;;;;;23.07;13.00;;;8.30;45.30;;;;;;5116770;27;20438;-83
2022/03/21 06:52:26;;;;;;;22.90;14.63;;;8.40;45.70;;;;;;5100151;27;20466;-82
2022/03/21 06:54:55;;;;;;;21.47;12.97;;;8.40;45.40;;;;;;5134015;27;20449;-84
2022/03/21 06:57:22;;;;;;;29.97;12.70;;;8.50;45.10;;;;;;5119444;27;20449;-82
2022/03/21 06:59:49;;;;;;;21.63;13.90;;;8.50;45.20;;;;;;5137827;27;20518;-82
2022/03/21 07:02:17;;;;;;;23.03;13.43;;;8.60;45.20;;;;;;5109691;27;20442;-83
2022/03/21 07:04:44;;;;;;;22.40;13.03;;;8.60;45.10;;;;;;5100441;27;20462;-83
2022/03/21 07:07:11;;;;;;;29.60;14.20;;;8.70;44.90;;;;;;5117248;27;21010;-82
2022/03/21 07:09:38;;;;;;;24.00;13.00;;;8.70;45.00;;;;;;5135638;27;20453;-82
2022/03/21 07:12:07;;;;;;;20.83;12.57;;;8.70;45.10;;;;;;5124019;27;20472;-82
2022/03/21 07:14:34;;;;;;;23.67;12.30;;;8.70;44.90;;;;;;5115821;27;20460;-82
2022/03/21 07:17:01;;;;;;;23.03;14.23;;;8.80;45.00;;;;;;5134580;27;20540;-82
2022/03/21 07:19:28;;;;;;;26.60;13.20;;;8.80;44.60;;;;;;5120930;27;20817;-82
2022/03/21 07:21:55;;;;;;;21.50;12.70;;;8.90;44.50;;;;;;5116584;27;20445;-82
2022/03/21 07:24:22;;;;;;;22.40;12.60;;;8.90;44.40;;;;;;5126276;27;20456;-83
2022/03/21 07:26:49;;;;;;;19.67;11.83;;;8.90;44.20;;;;;;5139990;27;20995;-84
2022/03/21 07:29:17;;;;;;;21.70;13.97;;;9.00;44.50;;;;;;5136395;27;20449;-82
2022/03/21 07:31:44;;;;;;;26.73;14.90;;;9.00;44.20;;;;;;5136666;27;20468;-83
2022/03/21 07:34:12;;;;;;;33.43;16.40;;;9.10;44.30;;;;;;5133820;27;20868;-83
2022/03/21 07:36:39;;;;;;;29.47;15.80;;;9.10;44.50;;;;;;5117251;27;20558;-83
2022/03/21 07:39:06;;;;;;;26.43;16.07;;;9.20;44.40;;;;;;5102770;27;20452;-84
2022/03/21 07:41:34;;;;;;;27.77;15.90;;;9.20;45.00;;;;;;5117282;27;20522;-83
2022/03/21 07:44:01;;;;;;;31.03;15.67;;;9.30;45.40;;;;;;5100862;27;20440;-83
2022/03/21 07:49:14;;;;;;;22.70;13.53;;;9.40;45.30;;;;;;5137582;27;20525;-83
2022/03/21 07:51:43;;;;;;;26.97;14.40;;;9.40;44.90;;;;;;5134748;27;20477;-83
2022/03/21 07:54:11;;;;;;;20.47;12.80;;;9.40;44.30;;;;;;5119574;27;20460;-83
2022/03/21 07:56:38;;;;;;;24.93;13.20;;;9.30;43.50;;;;;;5134990;27;20508;-80
2022/03/21 07:59:05;;;;;;;29.40;15.63;;;9.40;44.60;;;;;;5116183;27;20454;-82
2022/03/21 08:01:34;;;;;;;23.17;13.63;;;9.40;44.80;;;;;;5133678;27;20457;-83
2022/03/21 08:04:04;;;;;;;22.43;13.93;;;9.50;44.20;;;;;;5113354;27;20458;-82
2022/03/21 08:06:31;;;;;;;29.20;16.47;;;9.60;44.10;;;;;;5133693;27;20480;-83
2022/03/21 08:08:59;;;;;;;34.37;17.73;;;9.70;43.80;;;;;;5114787;27;20449;-83
2022/03/21 08:11:26;;;;;;;30.57;15.70;;;9.80;44.10;;;;;;5117400;27;20452;-82
2022/03/21 08:13:53;;;;;;;29.90;14.20;;;9.90;43.10;;;;;;5115264;27;20468;-82
2022/03/21 08:16:21;;;;;;;24.70;13.00;;;9.90;42.60;;;;;;5116093;27;20777;-83
2022/03/21 08:18:51;;;;;;;21.03;12.43;;;9.70;41.30;;;;;;5134372;27;20764;-83
2022/03/21 08:21:19;;;;;;;22.40;12.77;;;9.70;41.70;;;;;;5116522;27;20460;-83
2022/03/21 08:23:47;;;;;;;22.90;12.43;;;9.80;41.80;;;;;;5134215;27;20932;-83
2022/03/21 08:26:16;;;;;;;24.10;12.93;;;9.90;41.30;;;;;;5135130;27;20585;-84
2022/03/21 08:28:45;;;;;;;26.67;13.87;;;10.00;39.90;;;;;;5121584;27;20519;-84
2022/03/21 08:31:13;;;;;;;18.30;10.77;;;10.10;38.20;;;;;;5099278;27;20443;-84
2022/03/21 08:33:40;;;;;;;19.87;12.80;;;10.10;36.90;;;;;;5135106;27;20751;-85
2022/03/21 08:36:09;;;;;;;24.27;13.30;;;10.10;36.90;;;;;;5134943;27;21030;-82
2022/03/21 08:38:36;;;;;;;23.60;13.33;;;10.20;36.80;;;;;;5121847;27;20452;-83
2022/03/21 08:41:03;;;;;;;20.47;10.80;;;10.20;37.30;;;;;;5115930;27;20468;-84
2022/03/21 08:43:30;;;;;;;27.30;12.20;;;10.30;36.20;;;;;;5116056;27;20438;-83
2022/03/21 08:45:57;;;;;;;24.60;13.87;;;10.50;36.50;;;;;;5099596;27;20486;-84
2022/03/21 08:49:23;;;;;;;25.27;12.80;;;10.60;35.90;;;;;;5137001;27;20452;-82
2022/03/21 08:51:13;;;;;;;25.30;11.83;;;10.80;35.60;;;;;;5135618;27;20464;-82
2022/03/21 08:53:40;;;;;;;23.90;12.00;;;11.00;35.90;;;;;;5136765;27;20481;-83
2022/03/21 08:56:07;;;;;;;21.37;11.20;;;11.10;34.70;;;;;;5106312;27;20560;-83
2022/03/21 08:58:34;;;;;;;22.27;10.80;;;11.10;34.00;;;;;;5124881;27;20456;-83
2022/03/21 09:01:01;;;;;;;19.70;11.20;;;10.90;34.10;;;;;;5089110;27;20948;-81
2022/03/21 09:03:28;;;;;;;26.13;14.17;;;10.90;34.40;;;;;;5114962;27;20461;-83
2022/03/21 09:05:55;;;;;;;22.43;11.80;;;11.10;34.50;;;;;;5084139;27;20473;-80
2022/03/21 09:08:23;;;;;;;28.93;13.80;;;11.20;34.90;;;;;;5117633;27;20995;-83
2022/03/21 09:10:50;;;;;;;25.07;11.77;;;11.40;34.60;;;;;;5116898;27;20490;-83
2022/03/21 09:13:17;;;;;;;24.80;12.77;;;11.60;33.60;;;;;;5088947;27;21050;-84
2022/03/21 09:15:45;;;;;;;26.33;11.57;;;11.80;33.70;;;;;;5098515;27;20460;-79
2022/03/21 09:18:12;;;;;;;21.33;12.10;;;11.90;33.60;;;;;;5099129;27;20507;-83
2022/03/21 09:20:39;;;;;;;16.03;11.60;;;12.10;33.60;;;;;;5087818;27;20512;-82
2022/03/21 09:23:06;;;;;;;20.33;11.23;;;12.30;33.40;;;;;;5114544;27;20501;-83
2022/03/21 09:25:35;;;;;;;16.30;11.03;;;12.40;33.20;;;;;;5132479;27;20470;-82
2022/03/21 09:28:02;;;;;;;15.43;10.00;;;12.50;33.30;;;;;;5114464;27;20450;-83
2022/03/21 09:30:29;;;;;;;16.40;10.20;;;12.60;32.30;;;;;;5134828;27;20452;-84
2022/03/21 09:32:56;;;;;;;17.80;11.40;;;12.60;31.30;;;;;;5115528;27;20473;-82
2022/03/21 09:35:23;;;;;;;20.10;11.37;;;12.60;31.50;;;;;;5116475;27;20845;-83
2022/03/21 09:37:50;;;;;;;16.90;10.07;;;12.70;31.90;;;;;;5097379;27;20461;-83
2022/03/21 09:40:20;;;;;;;17.20;11.20;;;13.00;32.30;;;;;;5099693;27;20525;-83
2022/03/21 09:42:48;;;;;;;16.60;10.67;;;13.10;30.30;;;;;;5112717;27;20859;-83
2022/03/21 09:45:15;;;;;;;16.70;10.50;;;13.00;31.00;;;;;;5113144;27;20525;-85
2022/03/21 09:50:33;;;;;;;14.50;9.97;;;13.30;30.50;;;;;;5134414;27;20442;-82
2022/03/21 09:53:01;;;;;;;17.63;11.83;;;13.50;30.70;;;;;;5096798;27;20880;-82
2022/03/21 09:55:28;;;;;;;18.00;12.40;;;13.50;30.00;;;;;;5133613;27;20556;-84
2022/03/21 09:57:57;;;;;;;22.43;11.47;;;13.50;30.20;;;;;;5114353;27;20444;-83
2022/03/21 10:00:25;;;;;;;21.93;11.57;;;13.30;30.00;;;;;;5098209;27;20544;-82
2022/03/21 10:02:53;;;;;;;24.10;12.60;;;13.40;30.40;;;;;;5097693;27;20450;-83
2022/03/21 10:05:37;;;;;;;16.73;10.90;;;13.50;30.70;;;;;;5100572;27;20489;-83
2022/03/21 10:08:12;;;;;;;15.60;10.23;;;13.60;30.30;;;;;;5113390;27;20452;-82
2022/03/21 10:10:40;;;;;;;19.50;10.77;;;13.90;29.50;;;;;;5116697;27;20441;-82
2022/03/21 10:13:09;;;;;;;16.67;10.90;;;14.10;29.50;;;;;;5135180;27;20476;-83
2022/03/21 10:15:37;;;;;;;20.10;11.90;;;14.40;29.50;;;;;;5114452;27;21013;-82
2022/03/21 10:18:08;;;;;;;18.97;12.00;;;14.60;29.50;;;;;;5105168;27;20497;-82
2022/03/21 10:20:36;;;;;;;15.37;11.20;;;14.40;29.20;;;;;;5115707;27;20449;-83
2022/03/21 10:23:20;;;;;;;25.83;11.00;;;14.60;29.40;;;;;;5135524;27;20549;-83
2022/03/21 10:25:47;;;;;;;17.90;10.70;;;14.80;29.40;;;;;;5084448;27;20480;-82
2022/03/21 10:28:36;;;;;;;19.63;11.10;;;14.80;29.10;;;;;;5138276;27;20445;-84
2022/03/21 10:31:04;;;;;;;15.13;11.23;;;14.80;28.80;;;;;;5136763;27;20434;-85
2022/03/21 10:33:32;;;;;;;21.57;12.37;;;14.90;29.00;;;;;;5139057;27;20460;-83
2022/03/21 10:36:05;;;;;;;17.63;10.90;;;14.90;28.30;;;;;;5120410;27;20483;-84
2022/03/21 10:38:34;;;;;;;21.97;11.63;;;14.90;29.00;;;;;;5121024;27;20523;-83
2022/03/21 10:41:07;;;;;;;16.17;10.90;;;15.30;28.40;;;;;;5137409;27;20446;-83
2022/03/21 10:43:36;;;;;;;21.63;11.20;;;15.30;28.50;;;;;;5123122;27;20438;-83
2022/03/21 10:46:04;;;;;;;17.53;11.33;;;15.40;27.90;;;;;;5103439;27;20464;-83
2022/03/21 10:48:34;;;;;;;18.80;11.80;;;15.50;28.20;;;;;;5111190;27;20967;-84
2022/03/21 10:51:02;;;;;;;19.33;12.03;;;15.50;27.80;;;;;;5103012;27;21005;-83
2022/03/21 10:53:32;;;;;;;19.13;11.43;;;15.60;27.90;;;;;;5119077;27;20489;-84
2022/03/21 10:56:02;;;;;;;19.40;11.57;;;15.50;27.70;;;;;;5136875;27;20521;-84
2022/03/21 10:58:34;;;;;;;19.40;11.50;;;15.70;28.10;;;;;;5086587;27;20463;-84
2022/03/21 11:01:14;;;;;;;16.17;11.57;;;15.80;27.10;;;;;;5125239;27;21032;-84
2022/03/21 11:03:42;;;;;;;19.73;12.07;;;16.00;27.90;;;;;;5117688;27;20508;-83
2022/03/21 11:06:10;;;;;;;19.17;12.13;;;16.20;27.50;;;;;;5101845;27;21049;-83
2022/03/21 11:08:38;;;;;;;19.77;11.47;;;16.40;27.90;;;;;;5119574;27;20477;-84
2022/03/21 11:11:07;;;;;;;20.13;11.70;;;16.50;26.90;;;;;;5123702;27;20508;-82
2022/03/21 11:13:36;;;;;;;15.20;10.50;;;16.40;26.80;;;;;;5133850;27;20464;-83
2022/03/21 11:16:04;;;;;;;23.47;10.73;;;16.50;26.40;;;;;;5134718;27;20481;-82
2022/03/21 11:18:33;;;;;;;19.10;10.67;;;16.50;26.90;;;;;;5139273;27;20436;-83
2022/03/21 11:21:01;;;;;;;17.60;10.70;;;16.70;26.80;;;;;;5136003;27;20452;-83
2022/03/21 11:23:30;;;;;;;16.90;10.40;;;17.10;27.40;;;;;;5132613;27;20438;-82
2022/03/21 11:26:02;;;;;;;20.67;11.83;;;17.30;26.50;;;;;;5133608;27;20468;-83
2022/03/21 11:28:46;;;;;;;16.60;10.60;;;17.40;25.60;;;;;;5126311;27;20472;-84
2022/03/21 11:31:51;;;;;;;20.70;11.50;;;17.30;25.70;;;;;;5135298;27;20449;-83
2022/03/21 11:34:36;;;;;;;19.50;11.23;;;17.40;26.00;;;;;;5116239;27;20468;-83
2022/03/21 11:37:03;;;;;;;19.10;11.70;;;17.20;26.10;;;;;;5135511;27;20469;-83
2022/03/21 11:39:30;;;;;;;14.57;10.03;;;17.40;25.70;;;;;;5137108;27;20446;-84
2022/03/21 11:42:02;;;;;;;16.53;11.33;;;17.50;26.20;;;;;;5117883;27;20496;-84
2022/03/21 11:44:29;;;;;;;15.20;10.30;;;18.10;26.20;;;;;;5098260;27;20561;-82
2022/03/21 11:47:21;;;;;;;19.33;11.33;;;18.30;24.90;;;;;;5134235;27;21154;-83
2022/03/21 11:49:50;;;;;;;18.03;11.00;;;18.10;24.90;;;;;;5132939;27;20935;-82
2022/03/21 11:52:17;;;;;;;18.73;12.80;;;18.30;25.30;;;;;;5134689;27;20461;-83
2022/03/21 11:54:45;;;;;;;14.07;10.80;;;18.60;24.80;;;;;;5114048;27;20480;-83
2022/03/21 11:57:25;;;;;;;17.80;11.53;;;18.60;24.60;;;;;;5124430;27;20540;-85
2022/03/21 11:59:57;;;;;;;17.50;12.10;;;18.00;24.70;;;;;;5121712;27;20478;-83
2022/03/21 12:02:56;;;;;;;15.77;10.30;;;18.20;25.10;;;;;;5135269;27;20485;-84
2022/03/21 12:05:52;;;;;;;16.20;10.70;;;18.40;24.70;;;;;;5137157;27;20474;-83
2022/03/21 12:08:54;;;;;;;16.23;10.17;;;18.60;24.50;;;;;;5135830;27;20510;-83
2022/03/21 12:12:01;;;;;;;15.93;11.30;;;18.30;24.50;;;;;;5103833;27;20961;-84
2022/03/21 12:14:40;;;;;;;16.73;11.47;;;18.30;24.70;;;;;;5110394;27;20457;-82
2022/03/21 12:17:37;;;;;;;18.00;10.37;;;18.50;24.90;;;;;;5135286;27;20772;-84
2022/03/21 12:20:12;;;;;;;23.50;12.40;;;18.60;24.40;;;;;;5133910;27;21036;-84
2022/03/21 12:23:00;;;;;;;16.33;12.27;;;18.50;24.70;;;;;;5092121;27;20643;-82
2022/03/21 12:25:44;;;;;;;19.40;12.27;;;18.20;24.70;;;;;;5135660;27;20508;-80
2022/03/21 12:29:31;;;;;;;27.50;14.17;;;18.30;25.00;;;;;;5117532;27;20457;-82
2022/03/21 12:31:24;;;;;;;19.43;11.97;;;18.40;24.70;;;;;;5125417;27;20583;-83
2022/03/21 12:33:51;;;;;;;13.57;10.03;;;18.50;24.90;;;;;;5134565;27;20526;-82
2022/03/21 12:36:31;;;;;;;15.73;10.63;;;18.80;25.60;;;;;;5120476;27;20465;-82
2022/03/21 12:39:00;;;;;;;21.03;11.00;;;18.80;24.30;;;;;;5116520;27;20951;-82
2022/03/21 12:41:33;;;;;;;16.33;11.30;;;18.90;23.90;;;;;;5134675;27;20430;-83
2022/03/21 12:44:00;;;;;;;21.60;11.37;;;19.10;24.40;;;;;;5132520;27;20792;-82
2022/03/21 12:46:28;;;;;;;19.03;11.43;;;19.20;24.30;;;;;;5113409;27;20542;-81
2022/03/21 12:48:58;;;;;;;17.67;11.30;;;18.90;24.10;;;;;;5135590;27;20440;-82
2022/03/21 12:51:28;;;;;;;17.23;11.30;;;18.70;24.10;;;;;;5116473;27;20540;-83
2022/03/21 12:53:57;;;;;;;16.90;10.40;;;18.60;24.10;;;;;;5133340;27;20476;-82
2022/03/21 12:56:28;;;;;;;14.83;11.03;;;18.40;24.70;;;;;;5118030;27;20461;-83
2022/03/21 12:59:04;;;;;;;30.83;15.80;;;18.40;24.50;;;;;;5117238;27;20435;-83
2022/03/21 13:01:32;;;;;;;22.30;12.63;;;18.50;24.00;;;;;;5134953;27;21136;-83
2022/03/21 13:12:26;;;;;;;21.07;10.90;;;19.10;24.10;;;;;;5134381;27;20469;-83
2022/03/21 13:15:01;;;;;;;21.53;12.30;;;19.40;24.20;;;;;;5115957;27;20480;-82